sensor_id;sensor_type;location;lat;lon;timestamp;temperature;humidity
25918;DHT22;13899;51.174;4.456;2023-07-08T00:00:53;24.80;69.90
25918;DHT22;13899;51.174;4.456;2023-07-08T00:03:20;24.80;70.00
25918;DHT22;13899;51.174;4.456;2023-07-08T00:05:46;24.70;69.60
25918;DHT22;13899;51.174;4.456;2023-07-08T00:08:16;24.90;70.20
25918;DHT22;13899;51.174;4.456;2023-07-08T00:10:42;24.60;70.40
25918;DHT22;13899;51.174;4.456;2023-07-08T00:13:08;24.50;70.60
25918;DHT22;13899;51.174;4.456;2023-07-08T00:15:34;24.60;71.80
25918;DHT22;13899;51.174;4.456;2023-07-08T00:18:03;24.60;72.00
25918;DHT22;13899;51.174;4.456;2023-07-08T00:20:38;24.60;72.10
25918;DHT22;13899;51.174;4.456;2023-07-08T00:23:04;24.50;72.00
25918;DHT22;13899;51.174;4.456;2023-07-08T00:25:31;24.40;73.40
25918;DHT22;13899;51.174;4.456;2023-07-08T00:27:57;24.50;73.50
25918;DHT22;13899;51.174;4.456;2023-07-08T00:30:23;24.60;73.40
25918;DHT22;13899;51.174;4.456;2023-07-08T00:32:49;24.50;74.20
25918;DHT22;13899;51.174;4.456;2023-07-08T00:37:59;24.20;76.40
25918;DHT22;13899;51.174;4.456;2023-07-08T00:40:32;24.10;76.60
25918;DHT22;13899;51.174;4.456;2023-07-08T00:43:01;24.10;77.10
25918;DHT22;13899;51.174;4.456;2023-07-08T00:45:35;24.10;77.70
25918;DHT22;13899;51.174;4.456;2023-07-08T00:48:25;24.00;77.90
25918;DHT22;13899;51.174;4.456;2023-07-08T00:50:53;24.00;78.60
25918;DHT22;13899;51.174;4.456;2023-07-08T00:53:27;24.00;78.80
25918;DHT22;13899;51.174;4.456;2023-07-08T00:58:49;24.00;79.70
25918;DHT22;13899;51.174;4.456;2023-07-08T01:01:18;23.90;79.70
25918;DHT22;13899;51.174;4.456;2023-07-08T01:03:49;23.80;79.60
25918;DHT22;13899;51.174;4.456;2023-07-08T01:06:19;23.80;80.20
25918;DHT22;13899;51.174;4.456;2023-07-08T01:08:48;23.70;82.40
25918;DHT22;13899;51.174;4.456;2023-07-08T01:11:18;23.80;82.10
25918;DHT22;13899;51.174;4.456;2023-07-08T01:13:47;23.70;82.70
25918;DHT22;13899;51.174;4.456;2023-07-08T01:16:14;23.70;83.60
25918;DHT22;13899;51.174;4.456;2023-07-08T01:18:40;23.70;84.50
25918;DHT22;13899;51.174;4.456;2023-07-08T01:21:30;23.80;85.20
25918;DHT22;13899;51.174;4.456;2023-07-08T01:23:57;23.50;87.10
25918;DHT22;13899;51.174;4.456;2023-07-08T01:26:24;23.60;88.50
25918;DHT22;13899;51.174;4.456;2023-07-08T01:28:52;23.50;89.30
25918;DHT22;13899;51.174;4.456;2023-07-08T01:31:19;23.40;90.00
25918;DHT22;13899;51.174;4.456;2023-07-08T01:33:45;23.30;90.60
25918;DHT22;13899;51.174;4.456;2023-07-08T01:36:11;23.20;91.00
25918;DHT22;13899;51.174;4.456;2023-07-08T01:38:38;23.30;91.50
25918;DHT22;13899;51.174;4.456;2023-07-08T01:41:05;23.20;92.20
25918;DHT22;13899;51.174;4.456;2023-07-08T01:43:30;23.20;92.70
25918;DHT22;13899;51.174;4.456;2023-07-08T01:45:59;23.10;93.30
25918;DHT22;13899;51.174;4.456;2023-07-08T01:48:27;23.00;93.50
25918;DHT22;13899;51.174;4.456;2023-07-08T01:51:01;22.90;94.40
25918;DHT22;13899;51.174;4.456;2023-07-08T01:53:32;22.90;94.80
25918;DHT22;13899;51.174;4.456;2023-07-08T01:55:58;22.90;95.50
25918;DHT22;13899;51.174;4.456;2023-07-08T01:58:24;22.80;96.00
25918;DHT22;13899;51.174;4.456;2023-07-08T02:00:52;22.80;96.50
25918;DHT22;13899;51.174;4.456;2023-07-08T02:03:18;22.80;97.40
25918;DHT22;13899;51.174;4.456;2023-07-08T02:05:43;22.80;97.60
25918;DHT22;13899;51.174;4.456;2023-07-08T02:08:09;22.70;98.60
25918;DHT22;13899;51.174;4.456;2023-07-08T02:10:36;22.70;99.30
25918;DHT22;13899;51.174;4.456;2023-07-08T02:13:02;22.80;99.10
25918;DHT22;13899;51.174;4.456;2023-07-08T02:15:27;22.70;99.30
25918;DHT22;13899;51.174;4.456;2023-07-08T02:17:53;22.70;99.90
25918;DHT22;13899;51.174;4.456;2023-07-08T02:20:19;22.60;99.90
25918;DHT22;13899;51.174;4.456;2023-07-08T02:22:44;22.50;99.90
25918;DHT22;13899;51.174;4.456;2023-07-08T02:25:10;22.50;99.90
25918;DHT22;13899;51.174;4.456;2023-07-08T02:27:36;22.40;99.90
25918;DHT22;13899;51.174;4.456;2023-07-08T02:30:02;22.50;99.90
25918;DHT22;13899;51.174;4.456;2023-07-08T02:32:28;22.40;99.90
25918;DHT22;13899;51.174;4.456;2023-07-08T02:34:53;22.70;99.90
25918;DHT22;13899;51.174;4.456;2023-07-08T02:37:19;22.30;99.90
25918;DHT22;13899;51.174;4.456;2023-07-08T02:39:45;22.30;99.90
25918;DHT22;13899;51.174;4.456;2023-07-08T02:42:10;22.20;99.90
25918;DHT22;13899;51.174;4.456;2023-07-08T02:44:36;22.00;99.90
25918;DHT22;13899;51.174;4.456;2023-07-08T02:47:01;21.80;99.90
25918;DHT22;13899;51.174;4.456;2023-07-08T02:49:27;21.70;99.90
25918;DHT22;13899;51.174;4.456;2023-07-08T02:51:53;21.80;99.90
25918;DHT22;13899;51.174;4.456;2023-07-08T02:54:18;21.70;99.90
25918;DHT22;13899;51.174;4.456;2023-07-08T02:56:44;21.80;99.90
25918;DHT22;13899;51.174;4.456;2023-07-08T02:59:09;21.70;99.90
25918;DHT22;13899;51.174;4.456;2023-07-08T03:01:35;21.70;99.90
25918;DHT22;13899;51.174;4.456;2023-07-08T03:04:09;21.70;99.90
25918;DHT22;13899;51.174;4.456;2023-07-08T03:06:42;21.70;99.90
25918;DHT22;13899;51.174;4.456;2023-07-08T03:09:09;21.70;99.90
25918;DHT22;13899;51.174;4.456;2023-07-08T03:11:35;21.60;99.90
25918;DHT22;13899;51.174;4.456;2023-07-08T03:14:01;21.50;99.90
25918;DHT22;13899;51.174;4.456;2023-07-08T03:16:27;21.60;99.90
25918;DHT22;13899;51.174;4.456;2023-07-08T03:18:52;21.60;99.90
25918;DHT22;13899;51.174;4.456;2023-07-08T03:21:19;21.50;99.90
25918;DHT22;13899;51.174;4.456;2023-07-08T03:26:16;21.40;99.90
25918;DHT22;13899;51.174;4.456;2023-07-08T03:31:10;21.50;99.90
25918;DHT22;13899;51.174;4.456;2023-07-08T03:33:36;20.90;99.90
25918;DHT22;13899;51.174;4.456;2023-07-08T03:36:02;21.50;99.90
25918;DHT22;13899;51.174;4.456;2023-07-08T03:40:54;21.50;99.90
25918;DHT22;13899;51.174;4.456;2023-07-08T03:43:20;21.50;99.90
25918;DHT22;13899;51.174;4.456;2023-07-08T03:50:38;21.60;99.90
25918;DHT22;13899;51.174;4.456;2023-07-08T03:53:04;21.60;99.90
25918;DHT22;13899;51.174;4.456;2023-07-08T04:00:26;21.40;99.90
25918;DHT22;13899;51.174;4.456;2023-07-08T04:02:51;21.30;99.90
25918;DHT22;13899;51.174;4.456;2023-07-08T04:05:19;21.30;99.90
25918;DHT22;13899;51.174;4.456;2023-07-08T04:07:45;21.20;99.90
25918;DHT22;13899;51.174;4.456;2023-07-08T04:10:12;21.30;99.90
25918;DHT22;13899;51.174;4.456;2023-07-08T04:12:38;21.30;99.90
25918;DHT22;13899;51.174;4.456;2023-07-08T04:15:04;21.30;99.90
25918;DHT22;13899;51.174;4.456;2023-07-08T04:17:30;21.40;99.90
25918;DHT22;13899;51.174;4.456;2023-07-08T04:19:56;21.50;99.90
25918;DHT22;13899;51.174;4.456;2023-07-08T04:22:22;21.60;99.90
25918;DHT22;13899;51.174;4.456;2023-07-08T04:24:48;21.60;99.90
25918;DHT22;13899;51.174;4.456;2023-07-08T04:27:15;21.70;99.90
25918;DHT22;13899;51.174;4.456;2023-07-08T04:29:42;21.80;99.90
25918;DHT22;13899;51.174;4.456;2023-07-08T04:32:08;21.80;99.90
25918;DHT22;13899;51.174;4.456;2023-07-08T04:34:34;21.90;99.90
25918;DHT22;13899;51.174;4.456;2023-07-08T04:36:59;22.00;99.90
25918;DHT22;13899;51.174;4.456;2023-07-08T04:39:25;22.00;99.90
25918;DHT22;13899;51.174;4.456;2023-07-08T04:41:51;22.00;99.90
25918;DHT22;13899;51.174;4.456;2023-07-08T04:44:16;22.00;99.90
25918;DHT22;13899;51.174;4.456;2023-07-08T04:46:54;21.90;99.90
25918;DHT22;13899;51.174;4.456;2023-07-08T04:49:22;21.80;99.90
25918;DHT22;13899;51.174;4.456;2023-07-08T04:51:48;22.00;99.90
25918;DHT22;13899;51.174;4.456;2023-07-08T04:54:13;21.90;99.90
25918;DHT22;13899;51.174;4.456;2023-07-08T04:56:45;21.90;99.90
25918;DHT22;13899;51.174;4.456;2023-07-08T04:59:16;22.00;99.90
25918;DHT22;13899;51.174;4.456;2023-07-08T05:01:42;21.60;99.90
25918;DHT22;13899;51.174;4.456;2023-07-08T05:04:11;21.80;99.90
25918;DHT22;13899;51.174;4.456;2023-07-08T05:06:37;21.70;99.90
25918;DHT22;13899;51.174;4.456;2023-07-08T05:09:03;21.90;99.90
25918;DHT22;13899;51.174;4.456;2023-07-08T05:11:29;21.70;99.90
25918;DHT22;13899;51.174;4.456;2023-07-08T05:13:55;21.90;99.90
25918;DHT22;13899;51.174;4.456;2023-07-08T05:16:21;22.10;99.90
25918;DHT22;13899;51.174;4.456;2023-07-08T05:18:47;22.00;99.90
25918;DHT22;13899;51.174;4.456;2023-07-08T05:21:12;22.10;99.90
25918;DHT22;13899;51.174;4.456;2023-07-08T05:23:38;22.00;99.90
25918;DHT22;13899;51.174;4.456;2023-07-08T05:26:05;22.20;99.90
25918;DHT22;13899;51.174;4.456;2023-07-08T05:28:32;22.10;99.90
25918;DHT22;13899;51.174;4.456;2023-07-08T05:30:58;22.00;99.90
25918;DHT22;13899;51.174;4.456;2023-07-08T05:33:25;22.30;99.90
25918;DHT22;13899;51.174;4.456;2023-07-08T05:35:50;22.30;99.90
25918;DHT22;13899;51.174;4.456;2023-07-08T05:38:16;22.50;99.90
25918;DHT22;13899;51.174;4.456;2023-07-08T05:40:42;22.70;99.90
25918;DHT22;13899;51.174;4.456;2023-07-08T05:43:08;22.20;99.90
25918;DHT22;13899;51.174;4.456;2023-07-08T05:45:33;22.20;99.90
25918;DHT22;13899;51.174;4.456;2023-07-08T05:48:01;22.60;99.90
25918;DHT22;13899;51.174;4.456;2023-07-08T05:50:28;22.40;99.90
25918;DHT22;13899;51.174;4.456;2023-07-08T05:52:53;22.60;99.90
25918;DHT22;13899;51.174;4.456;2023-07-08T05:55:19;22.60;99.90
25918;DHT22;13899;51.174;4.456;2023-07-08T05:57:44;22.40;99.90
25918;DHT22;13899;51.174;4.456;2023-07-08T06:00:10;22.50;99.90
25918;DHT22;13899;51.174;4.456;2023-07-08T06:05:02;23.10;99.90
25918;DHT22;13899;51.174;4.456;2023-07-08T06:07:28;23.10;99.90
25918;DHT22;13899;51.174;4.456;2023-07-08T06:09:53;23.10;99.90
25918;DHT22;13899;51.174;4.456;2023-07-08T06:14:47;23.80;99.90
25918;DHT22;13899;51.174;4.456;2023-07-08T06:17:13;23.70;99.90
25918;DHT22;13899;51.174;4.456;2023-07-08T06:19:38;23.50;99.90
25918;DHT22;13899;51.174;4.456;2023-07-08T06:22:04;23.60;99.90
25918;DHT22;13899;51.174;4.456;2023-07-08T06:24:30;23.30;99.90
25918;DHT22;13899;51.174;4.456;2023-07-08T06:26:55;23.50;99.90
25918;DHT22;13899;51.174;4.456;2023-07-08T06:29:21;23.30;99.90
25918;DHT22;13899;51.174;4.456;2023-07-08T06:31:46;23.50;99.90
25918;DHT22;13899;51.174;4.456;2023-07-08T06:34:12;23.80;99.90
25918;DHT22;13899;51.174;4.456;2023-07-08T06:36:38;23.80;99.90
25918;DHT22;13899;51.174;4.456;2023-07-08T06:39:03;23.90;99.90
25918;DHT22;13899;51.174;4.456;2023-07-08T06:41:32;24.00;99.90
25918;DHT22;13899;51.174;4.456;2023-07-08T06:43:58;23.80;99.90
25918;DHT22;13899;51.174;4.456;2023-07-08T06:46:24;24.00;99.90
25918;DHT22;13899;51.174;4.456;2023-07-08T06:48:49;24.40;99.90
25918;DHT22;13899;51.174;4.456;2023-07-08T06:51:15;24.20;99.90
25918;DHT22;13899;51.174;4.456;2023-07-08T06:53:41;24.30;99.90
25918;DHT22;13899;51.174;4.456;2023-07-08T06:56:07;24.20;99.90
25918;DHT22;13899;51.174;4.456;2023-07-08T06:58:33;24.20;99.90
25918;DHT22;13899;51.174;4.456;2023-07-08T07:00:59;24.30;99.90
25918;DHT22;13899;51.174;4.456;2023-07-08T07:03:25;24.50;99.90
25918;DHT22;13899;51.174;4.456;2023-07-08T07:05:51;24.60;99.90
25918;DHT22;13899;51.174;4.456;2023-07-08T07:08:16;24.80;99.90
25918;DHT22;13899;51.174;4.456;2023-07-08T07:10:42;24.70;99.90
25918;DHT22;13899;51.174;4.456;2023-07-08T07:13:08;24.90;99.90
25918;DHT22;13899;51.174;4.456;2023-07-08T07:15:33;25.00;99.90
25918;DHT22;13899;51.174;4.456;2023-07-08T07:20:25;25.30;99.90
25918;DHT22;13899;51.174;4.456;2023-07-08T07:22:51;25.30;99.90
25918;DHT22;13899;51.174;4.456;2023-07-08T07:25:17;25.40;99.90
25918;DHT22;13899;51.174;4.456;2023-07-08T07:27:43;25.80;99.90
25918;DHT22;13899;51.174;4.456;2023-07-08T07:32:38;25.90;99.90
25918;DHT22;13899;51.174;4.456;2023-07-08T07:35:04;25.90;99.90
25918;DHT22;13899;51.174;4.456;2023-07-08T07:37:30;25.90;99.90
25918;DHT22;13899;51.174;4.456;2023-07-08T07:39:56;26.00;99.90
25918;DHT22;13899;51.174;4.456;2023-07-08T07:42:21;25.80;99.90
25918;DHT22;13899;51.174;4.456;2023-07-08T07:44:47;25.80;99.90
25918;DHT22;13899;51.174;4.456;2023-07-08T07:47:13;26.10;99.90
25918;DHT22;13899;51.174;4.456;2023-07-08T07:52:06;26.30;99.90
25918;DHT22;13899;51.174;4.456;2023-07-08T07:54:32;26.80;99.90
25918;DHT22;13899;51.174;4.456;2023-07-08T07:56:57;27.10;99.90
25918;DHT22;13899;51.174;4.456;2023-07-08T07:59:23;26.30;99.90
25918;DHT22;13899;51.174;4.456;2023-07-08T08:01:49;25.90;99.90
25918;DHT22;13899;51.174;4.456;2023-07-08T08:04:14;25.80;99.90
25918;DHT22;13899;51.174;4.456;2023-07-08T08:06:40;25.80;99.90
25918;DHT22;13899;51.174;4.456;2023-07-08T08:09:06;25.90;99.90
25918;DHT22;13899;51.174;4.456;2023-07-08T08:11:32;26.40;99.90
25918;DHT22;13899;51.174;4.456;2023-07-08T08:13:57;26.30;99.90
25918;DHT22;13899;51.174;4.456;2023-07-08T08:16:23;26.00;99.90
25918;DHT22;13899;51.174;4.456;2023-07-08T08:18:49;26.30;99.90
25918;DHT22;13899;51.174;4.456;2023-07-08T08:21:15;26.40;99.90
25918;DHT22;13899;51.174;4.456;2023-07-08T08:23:41;26.40;99.90
25918;DHT22;13899;51.174;4.456;2023-07-08T08:26:07;26.60;99.90
25918;DHT22;13899;51.174;4.456;2023-07-08T08:28:32;26.90;99.90
25918;DHT22;13899;51.174;4.456;2023-07-08T08:30:58;27.50;99.90
25918;DHT22;13899;51.174;4.456;2023-07-08T08:33:23;27.90;99.90
25918;DHT22;13899;51.174;4.456;2023-07-08T08:35:49;27.90;99.90
25918;DHT22;13899;51.174;4.456;2023-07-08T08:38:15;28.00;99.90
25918;DHT22;13899;51.174;4.456;2023-07-08T08:40:41;28.40;99.90
25918;DHT22;13899;51.174;4.456;2023-07-08T08:43:14;28.50;99.90
25918;DHT22;13899;51.174;4.456;2023-07-08T08:48:17;28.70;99.90
25918;DHT22;13899;51.174;4.456;2023-07-08T08:50:52;28.70;99.90
25918;DHT22;13899;51.174;4.456;2023-07-08T08:53:19;28.60;99.90
25918;DHT22;13899;51.174;4.456;2023-07-08T08:55:54;29.00;99.90
25918;DHT22;13899;51.174;4.456;2023-07-08T08:58:32;29.10;99.90
25918;DHT22;13899;51.174;4.456;2023-07-08T09:01:07;29.10;99.90
25918;DHT22;13899;51.174;4.456;2023-07-08T09:06:32;29.20;99.90
25918;DHT22;13899;51.174;4.456;2023-07-08T09:09:09;28.80;99.90
25918;DHT22;13899;51.174;4.456;2023-07-08T09:14:34;27.90;99.90
25918;DHT22;13899;51.174;4.456;2023-07-08T09:19:37;27.90;99.90
25918;DHT22;13899;51.174;4.456;2023-07-08T09:25:53;28.30;99.90
25918;DHT22;13899;51.174;4.456;2023-07-08T09:27:50;28.60;99.90
25918;DHT22;13899;51.174;4.456;2023-07-08T09:30:19;28.70;99.90
25918;DHT22;13899;51.174;4.456;2023-07-08T09:32:48;29.10;99.90
25918;DHT22;13899;51.174;4.456;2023-07-08T09:35:39;29.70;99.90
25918;DHT22;13899;51.174;4.456;2023-07-08T09:38:13;30.20;98.60
25918;DHT22;13899;51.174;4.456;2023-07-08T09:40:42;29.90;96.90
25918;DHT22;13899;51.174;4.456;2023-07-08T09:45:50;30.40;98.50
25918;DHT22;13899;51.174;4.456;2023-07-08T09:48:27;30.90;95.60
25918;DHT22;13899;51.174;4.456;2023-07-08T09:50:54;31.20;95.20
25918;DHT22;13899;51.174;4.456;2023-07-08T09:53:21;31.10;94.70
25918;DHT22;13899;51.174;4.456;2023-07-08T09:55:47;31.50;95.30
25918;DHT22;13899;51.174;4.456;2023-07-08T09:58:31;31.60;94.20
25918;DHT22;13899;51.174;4.456;2023-07-08T10:01:00;32.00;94.50
25918;DHT22;13899;51.174;4.456;2023-07-08T10:03:29;31.90;92.40
25918;DHT22;13899;51.174;4.456;2023-07-08T10:05:58;31.30;91.60
25918;DHT22;13899;51.174;4.456;2023-07-08T10:08:30;31.90;92.90
25918;DHT22;13899;51.174;4.456;2023-07-08T10:11:29;33.10;87.30
25918;DHT22;13899;51.174;4.456;2023-07-08T10:14:09;34.70;85.80
25918;DHT22;13899;51.174;4.456;2023-07-08T10:16:36;35.90;78.70
25918;DHT22;13899;51.174;4.456;2023-07-08T10:19:13;37.10;74.30
25918;DHT22;13899;51.174;4.456;2023-07-08T10:26:47;40.30;54.60
25918;DHT22;13899;51.174;4.456;2023-07-08T10:29:20;40.50;55.50
25918;DHT22;13899;51.174;4.456;2023-07-08T10:32:02;40.90;54.00
25918;DHT22;13899;51.174;4.456;2023-07-08T10:43:19;41.90;51.50
25918;DHT22;13899;51.174;4.456;2023-07-08T10:57:01;44.00;44.10
25918;DHT22;13899;51.174;4.456;2023-07-08T11:04:53;44.80;43.40
25918;DHT22;13899;51.174;4.456;2023-07-08T11:07:30;44.90;41.90
25918;DHT22;13899;51.174;4.456;2023-07-08T11:10:05;44.70;41.90
25918;DHT22;13899;51.174;4.456;2023-07-08T11:12:40;45.00;42.50
25918;DHT22;13899;51.174;4.456;2023-07-08T11:15:31;44.60;42.70
25918;DHT22;13899;51.174;4.456;2023-07-08T11:18:08;44.00;40.40
25918;DHT22;13899;51.174;4.456;2023-07-08T11:20:41;44.70;40.40
25918;DHT22;13899;51.174;4.456;2023-07-08T11:25:46;44.50;40.90
25918;DHT22;13899;51.174;4.456;2023-07-08T11:28:18;44.40;40.90
25918;DHT22;13899;51.174;4.456;2023-07-08T11:30:45;44.90;41.00
25918;DHT22;13899;51.174;4.456;2023-07-08T11:33:12;45.10;40.00
25918;DHT22;13899;51.174;4.456;2023-07-08T11:35:49;44.20;40.90
25918;DHT22;13899;51.174;4.456;2023-07-08T11:38:19;44.80;39.80
25918;DHT22;13899;51.174;4.456;2023-07-08T11:41:14;45.60;38.00
25918;DHT22;13899;51.174;4.456;2023-07-08T11:46:19;45.20;38.40
25918;DHT22;13899;51.174;4.456;2023-07-08T11:48:48;45.00;38.80
25918;DHT22;13899;51.174;4.456;2023-07-08T11:51:23;45.30;38.80
25918;DHT22;13899;51.174;4.456;2023-07-08T11:53:58;45.70;37.90
25918;DHT22;13899;51.174;4.456;2023-07-08T11:56:25;45.30;37.60
25918;DHT22;13899;51.174;4.456;2023-07-08T11:59:04;45.10;38.50
25918;DHT22;13899;51.174;4.456;2023-07-08T12:04:24;44.20;37.80
25918;DHT22;13899;51.174;4.456;2023-07-08T12:09:29;45.30;37.10
25918;DHT22;13899;51.174;4.456;2023-07-08T12:12:12;45.90;37.10
25918;DHT22;13899;51.174;4.456;2023-07-08T12:14:40;45.40;37.00
25918;DHT22;13899;51.174;4.456;2023-07-08T12:17:11;45.30;37.40
25918;DHT22;13899;51.174;4.456;2023-07-08T12:19:37;46.20;37.00
25918;DHT22;13899;51.174;4.456;2023-07-08T12:22:08;46.30;35.90
25918;DHT22;13899;51.174;4.456;2023-07-08T12:24:34;46.70;36.80
25918;DHT22;13899;51.174;4.456;2023-07-08T12:27:00;46.80;35.70
25918;DHT22;13899;51.174;4.456;2023-07-08T12:29:26;47.00;35.30
25918;DHT22;13899;51.174;4.456;2023-07-08T12:31:52;45.40;35.80
25918;DHT22;13899;51.174;4.456;2023-07-08T12:34:18;45.80;36.00
25918;DHT22;13899;51.174;4.456;2023-07-08T12:36:45;45.90;36.40
25918;DHT22;13899;51.174;4.456;2023-07-08T12:39:13;45.80;35.30
25918;DHT22;13899;51.174;4.456;2023-07-08T12:41:41;46.90;36.00
25918;DHT22;13899;51.174;4.456;2023-07-08T12:44:18;45.70;34.60
25918;DHT22;13899;51.174;4.456;2023-07-08T12:46:45;43.80;35.90
25918;DHT22;13899;51.174;4.456;2023-07-08T12:49:13;42.00;37.90
25918;DHT22;13899;51.174;4.456;2023-07-08T12:51:44;40.80;38.60
25918;DHT22;13899;51.174;4.456;2023-07-08T12:54:11;39.90;40.00
25918;DHT22;13899;51.174;4.456;2023-07-08T12:56:38;41.90;40.40
25918;DHT22;13899;51.174;4.456;2023-07-08T12:59:04;43.40;38.30
25918;DHT22;13899;51.174;4.456;2023-07-08T13:01:33;43.80;38.00
25918;DHT22;13899;51.174;4.456;2023-07-08T13:04:03;43.10;38.60
25918;DHT22;13899;51.174;4.456;2023-07-08T13:06:31;43.90;38.60
25918;DHT22;13899;51.174;4.456;2023-07-08T13:09:05;42.60;38.10
25918;DHT22;13899;51.174;4.456;2023-07-08T13:11:32;43.00;39.30
25918;DHT22;13899;51.174;4.456;2023-07-08T13:13:58;44.70;37.40
25918;DHT22;13899;51.174;4.456;2023-07-08T13:16:31;43.90;36.90
25918;DHT22;13899;51.174;4.456;2023-07-08T13:18:57;43.80;37.60
25918;DHT22;13899;51.174;4.456;2023-07-08T13:21:23;44.70;37.50
25918;DHT22;13899;51.174;4.456;2023-07-08T13:23:50;43.40;37.80
25918;DHT22;13899;51.174;4.456;2023-07-08T13:26:18;43.80;38.10
25918;DHT22;13899;51.174;4.456;2023-07-08T13:28:45;44.00;38.70
25918;DHT22;13899;51.174;4.456;2023-07-08T13:31:22;45.10;37.00
25918;DHT22;13899;51.174;4.456;2023-07-08T13:33:50;45.40;38.10
25918;DHT22;13899;51.174;4.456;2023-07-08T13:36:23;45.70;37.80
25918;DHT22;13899;51.174;4.456;2023-07-08T13:38:50;43.30;38.30
25918;DHT22;13899;51.174;4.456;2023-07-08T13:41:20;43.50;38.10
25918;DHT22;13899;51.174;4.456;2023-07-08T13:43:48;43.20;38.20
25918;DHT22;13899;51.174;4.456;2023-07-08T13:49:39;43.90;38.80
25918;DHT22;13899;51.174;4.456;2023-07-08T13:52:15;41.70;41.60
25918;DHT22;13899;51.174;4.456;2023-07-08T13:55:00;37.70;46.80
25918;DHT22;13899;51.174;4.456;2023-07-08T13:57:34;35.10;50.30
25918;DHT22;13899;51.174;4.456;2023-07-08T14:00:00;33.50;52.90
25918;DHT22;13899;51.174;4.456;2023-07-08T14:02:29;32.40;54.80
25918;DHT22;13899;51.174;4.456;2023-07-08T14:04:56;31.40;55.80
25918;DHT22;13899;51.174;4.456;2023-07-08T14:07:30;31.40;55.90
25918;DHT22;13899;51.174;4.456;2023-07-08T14:09:56;31.60;57.40
25918;DHT22;13899;51.174;4.456;2023-07-08T14:12:22;31.30;56.60
25918;DHT22;13899;51.174;4.456;2023-07-08T14:14:48;29.70;61.00
25918;DHT22;13899;51.174;4.456;2023-07-08T14:17:19;29.60;61.50
25918;DHT22;13899;51.174;4.456;2023-07-08T14:19:46;29.50;63.80
25918;DHT22;13899;51.174;4.456;2023-07-08T14:22:25;29.80;62.30
25918;DHT22;13899;51.174;4.456;2023-07-08T14:24:51;30.20;62.10
25918;DHT22;13899;51.174;4.456;2023-07-08T14:27:17;30.10;64.40
25918;DHT22;13899;51.174;4.456;2023-07-08T14:29:46;30.00;65.40
25918;DHT22;13899;51.174;4.456;2023-07-08T14:32:28;29.50;67.00
25918;DHT22;13899;51.174;4.456;2023-07-08T14:35:10;28.80;69.70
25918;DHT22;13899;51.174;4.456;2023-07-08T14:37:37;28.90;70.70
25918;DHT22;13899;51.174;4.456;2023-07-08T14:42:42;27.20;99.90
25918;DHT22;13899;51.174;4.456;2023-07-08T14:45:08;27.10;99.90
25918;DHT22;13899;51.174;4.456;2023-07-08T14:50:03;28.30;99.90
25918;DHT22;13899;51.174;4.456;2023-07-08T14:52:36;30.70;99.90
25918;DHT22;13899;51.174;4.456;2023-07-08T14:55:01;32.40;97.60
25918;DHT22;13899;51.174;4.456;2023-07-08T14:57:32;33.30;92.10
25918;DHT22;13899;51.174;4.456;2023-07-08T15:00:00;34.20;78.20
25918;DHT22;13899;51.174;4.456;2023-07-08T15:02:25;36.20;81.70
25918;DHT22;13899;51.174;4.456;2023-07-08T15:04:51;37.10;75.30
25918;DHT22;13899;51.174;4.456;2023-07-08T15:07:19;37.10;75.30
25918;DHT22;13899;51.174;4.456;2023-07-08T15:09:44;36.70;63.20
25918;DHT22;13899;51.174;4.456;2023-07-08T15:12:11;36.40;67.20
25918;DHT22;13899;51.174;4.456;2023-07-08T15:14:37;36.20;64.40
25918;DHT22;13899;51.174;4.456;2023-07-08T15:17:15;36.50;67.50
25918;DHT22;13899;51.174;4.456;2023-07-08T15:19:44;35.30;69.40
25918;DHT22;13899;51.174;4.456;2023-07-08T15:22:10;34.40;73.90
25918;DHT22;13899;51.174;4.456;2023-07-08T15:24:35;33.70;77.10
25918;DHT22;13899;51.174;4.456;2023-07-08T15:27:03;33.40;77.80
25918;DHT22;13899;51.174;4.456;2023-07-08T15:29:29;32.90;83.00
25918;DHT22;13899;51.174;4.456;2023-07-08T15:31:55;32.70;87.20
25918;DHT22;13899;51.174;4.456;2023-07-08T15:34:22;32.50;89.10
25918;DHT22;13899;51.174;4.456;2023-07-08T15:36:47;32.60;90.70
25918;DHT22;13899;51.174;4.456;2023-07-08T15:39:13;32.80;90.70
25918;DHT22;13899;51.174;4.456;2023-07-08T15:41:39;32.80;90.50
25918;DHT22;13899;51.174;4.456;2023-07-08T15:44:07;33.10;90.60
25918;DHT22;13899;51.174;4.456;2023-07-08T15:46:42;33.00;86.70
25918;DHT22;13899;51.174;4.456;2023-07-08T15:49:20;32.80;89.20
25918;DHT22;13899;51.174;4.456;2023-07-08T15:51:48;32.40;86.70
25918;DHT22;13899;51.174;4.456;2023-07-08T15:54:14;32.30;86.70
25918;DHT22;13899;51.174;4.456;2023-07-08T15:56:40;32.50;87.90
25918;DHT22;13899;51.174;4.456;2023-07-08T15:59:30;32.80;84.00
25918;DHT22;13899;51.174;4.456;2023-07-08T16:01:57;32.80;84.70
25918;DHT22;13899;51.174;4.456;2023-07-08T16:04:32;33.30;82.70
25918;DHT22;13899;51.174;4.456;2023-07-08T16:06:57;33.00;82.90
25918;DHT22;13899;51.174;4.456;2023-07-08T16:09:23;33.30;82.40
25918;DHT22;13899;51.174;4.456;2023-07-08T16:11:49;33.40;79.80
25918;DHT22;13899;51.174;4.456;2023-07-08T16:14:16;32.50;82.10
25918;DHT22;13899;51.174;4.456;2023-07-08T16:16:43;32.60;81.60
25918;DHT22;13899;51.174;4.456;2023-07-08T16:19:14;32.10;95.10
25918;DHT22;13899;51.174;4.456;2023-07-08T16:21:40;32.70;82.60
25918;DHT22;13899;51.174;4.456;2023-07-08T16:24:06;32.70;81.60
25918;DHT22;13899;51.174;4.456;2023-07-08T16:26:32;32.60;80.20
25918;DHT22;13899;51.174;4.456;2023-07-08T16:28:57;32.40;81.10
25918;DHT22;13899;51.174;4.456;2023-07-08T16:31:25;32.60;81.10
25918;DHT22;13899;51.174;4.456;2023-07-08T16:33:54;32.50;79.20
25918;DHT22;13899;51.174;4.456;2023-07-08T16:36:25;32.40;79.60
25918;DHT22;13899;51.174;4.456;2023-07-08T16:38:52;32.50;79.50
25918;DHT22;13899;51.174;4.456;2023-07-08T16:41:18;32.80;77.60
25918;DHT22;13899;51.174;4.456;2023-07-08T16:43:45;32.50;76.10
25918;DHT22;13899;51.174;4.456;2023-07-08T16:46:12;32.80;76.00
25918;DHT22;13899;51.174;4.456;2023-07-08T16:48:38;32.90;75.90
25918;DHT22;13899;51.174;4.456;2023-07-08T16:51:12;33.10;73.60
25918;DHT22;13899;51.174;4.456;2023-07-08T16:53:39;32.70;74.80
25918;DHT22;13899;51.174;4.456;2023-07-08T16:56:04;32.90;72.70
25918;DHT22;13899;51.174;4.456;2023-07-08T16:58:30;32.70;68.50
25918;DHT22;13899;51.174;4.456;2023-07-08T17:00:55;32.60;70.00
25918;DHT22;13899;51.174;4.456;2023-07-08T17:03:21;32.30;69.90
25918;DHT22;13899;51.174;4.456;2023-07-08T17:05:47;32.00;64.90
25918;DHT22;13899;51.174;4.456;2023-07-08T17:08:15;31.90;62.90
25918;DHT22;13899;51.174;4.456;2023-07-08T17:10:42;31.90;64.30
25918;DHT22;13899;51.174;4.456;2023-07-08T17:13:10;31.90;65.00
25918;DHT22;13899;51.174;4.456;2023-07-08T17:18:02;31.80;65.00
25918;DHT22;13899;51.174;4.456;2023-07-08T17:20:32;32.10;65.60